Time;durP1;ratioP1;P1;durP2;ratioP2;P2;SDS_P1;SDS_P2;PMS_P1;PMS_P2;Temp;Humidity;BMP_temperature;BMP_pressure;BME280_temperature;BME280_humidity;BME280_pressure;Samples;Min_cycle;Max_cycle;Signal;HPM_P1;HPM_P2
2023/08/25 00:00:11;;;;;;;17.10;13.80;;;;;;;-128.00;-1.00;-1.00;105666;1250;1004089;-74
2023/08/25 00:02:57;;;;;;;15.00;13.50;;;;;;;-128.00;-1.00;-1.00;105617;1251;1062707;-73
2023/08/25 00:05:24;;;;;;;15.30;13.70;;;;;;;-128.00;-1.00;-1.00;105938;1251;1004345;-73
2023/08/25 00:07:50;;;;;;;15.20;13.60;;;;;;;-128.00;-1.00;-1.00;105652;1250;1004293;-73
2023/08/25 00:10:17;;;;;;;17.00;14.20;;;;;;;-128.00;-1.00;-1.00;105906;1250;1005819;-74
2023/08/25 00:12:46;;;;;;;16.10;14.50;;;;;;;-128.00;-1.00;-1.00;105902;1251;1004211;-73
2023/08/25 00:15:13;;;;;;;15.00;13.50;;;;;;;-128.00;-1.00;-1.00;105914;1251;1062214;-74
2023/08/25 00:17:39;;;;;;;18.90;14.50;;;;;;;-128.00;-1.00;-1.00;105951;1249;1003980;-74
2023/08/25 00:20:09;;;;;;;17.00;15.50;;;;;;;-128.00;-1.00;-1.00;105881;1251;1004324;-74
2023/08/25 00:22:36;;;;;;;17.60;14.30;;;;;;;-128.00;-1.00;-1.00;105916;1251;1047231;-74
2023/08/25 00:25:03;;;;;;;15.70;14.00;;;;;;;-128.00;-1.00;-1.00;105922;1251;1004606;-74
2023/08/25 00:27:30;;;;;;;15.80;14.20;;;;;;;-128.00;-1.00;-1.00;105905;1251;1004767;-73
2023/08/25 00:29:56;;;;;;;16.90;15.20;;;;;;;-128.00;-1.00;-1.00;105977;1250;1003396;-73
2023/08/25 00:32:23;;;;;;;15.90;14.20;;;;;;;-128.00;-1.00;-1.00;105905;1250;1004912;-74
2023/08/25 00:34:49;;;;;;;16.10;14.00;;;;;;;-128.00;-1.00;-1.00;105885;1249;1004945;-74
2023/08/25 00:37:16;;;;;;;16.80;14.20;;;;;;;-128.00;-1.00;-1.00;105953;1250;1004841;-74
2023/08/25 00:39:42;;;;;;;16.00;13.80;;;;;;;-128.00;-1.00;-1.00;105942;1250;1004882;-73
2023/08/25 00:42:09;;;;;;;16.50;14.70;;;;;;;-128.00;-1.00;-1.00;105939;1249;1004152;-73
2023/08/25 00:44:36;;;;;;;19.20;14.90;;;;;;;-128.00;-1.00;-1.00;105780;1250;1003304;-73
2023/08/25 00:47:03;;;;;;;16.50;14.20;;;;;;;-128.00;-1.00;-1.00;105938;1249;1003279;-74
2023/08/25 00:49:31;;;;;;;15.60;14.10;;;;;;;-128.00;-1.00;-1.00;105902;1249;1006092;-74
2023/08/25 00:51:58;;;;;;;15.90;14.30;;;;;;;-128.00;-1.00;-1.00;105929;1250;1004454;-73
2023/08/25 00:54:28;;;;;;;15.00;13.40;;;;;;;-128.00;-1.00;-1.00;105910;1251;1004974;-73
2023/08/25 00:56:55;;;;;;;;;;;;;;;-128.00;-1.00;-1.00;105899;1251;1059508;-72
2023/08/25 00:59:22;;;;;;;17.60;14.20;;;;;;;-128.00;-1.00;-1.00;105874;1249;1003954;-73
2023/08/25 01:01:49;;;;;;;14.90;13.30;;;;;;;-128.00;-1.00;-1.00;105961;1250;1003892;-73
2023/08/25 01:04:15;;;;;;;15.00;13.50;;;;;;;-128.00;-1.00;-1.00;105919;1251;1004002;-73
2023/08/25 01:06:42;;;;;;;15.50;13.90;;;;;;;-128.00;-1.00;-1.00;105956;1250;1004267;-73
2023/08/25 01:09:10;;;;;;;14.30;12.60;;;;;;;-128.00;-1.00;-1.00;105892;1251;1003616;-72
2023/08/25 01:11:40;;;;;;;13.70;12.30;;;;;;;-128.00;-1.00;-1.00;105894;1249;1004943;-73
2023/08/25 01:14:16;;;;;;;13.30;12.00;;;;;;;-128.00;-1.00;-1.00;105897;1250;1047196;-74
2023/08/25 01:17:15;;;;;;;13.60;12.10;;;;;;;-128.00;-1.00;-1.00;105884;1251;1063174;-73
2023/08/25 01:19:52;;;;;;;13.70;12.20;;;;;;;-128.00;-1.00;-1.00;105154;1259;1055792;-73
2023/08/25 01:22:45;;;;;;;15.60;13.10;;;;;;;-128.00;-1.00;-1.00;105154;1260;1058109;-74
2023/08/25 01:25:20;;;;;;;13.30;11.90;;;;;;;-128.00;-1.00;-1.00;104747;1267;1045640;-75
2023/08/25 01:27:49;;;;;;;13.50;12.30;;;;;;;-128.00;-1.00;-1.00;104773;1266;1047335;-76
2023/08/25 01:30:15;;;;;;;13.00;11.80;;;;;;;-128.00;-1.00;-1.00;104762;1266;1064620;-74
2023/08/25 01:32:42;;;;;;;13.50;12.10;;;;;;;-128.00;-1.00;-1.00;104793;1266;1004995;-74
2023/08/25 01:35:09;;;;;;;13.50;12.10;;;;;;;-128.00;-1.00;-1.00;104776;1267;1004210;-74
2023/08/25 01:37:42;;;;;;;13.10;11.80;;;;;;;-128.00;-1.00;-1.00;104753;1267;1004781;-74
2023/08/25 01:40:20;;;;;;;12.50;11.20;;;;;;;-128.00;-1.00;-1.00;104798;1267;1046957;-74
2023/08/25 01:42:49;;;;;;;13.00;11.40;;;;;;;-128.00;-1.00;-1.00;104696;1267;1063199;-74
2023/08/25 01:45:17;;;;;;;13.00;11.90;;;;;;;-128.00;-1.00;-1.00;104749;1267;1054772;-74
2023/08/25 01:47:46;;;;;;;13.20;11.80;;;;;;;-128.00;-1.00;-1.00;104758;1267;1003704;-73
2023/08/25 01:50:14;;;;;;;12.40;11.20;;;;;;;-128.00;-1.00;-1.00;104763;1267;1046850;-73
2023/08/25 01:52:42;;;;;;;12.00;10.90;;;;;;;-128.00;-1.00;-1.00;104763;1266;1004730;-73
2023/08/25 01:55:08;;;;;;;13.50;12.10;;;;;;;-128.00;-1.00;-1.00;104774;1266;1003660;-73
2023/08/25 01:57:35;;;;;;;15.00;11.50;;;;;;;-128.00;-1.00;-1.00;105109;1260;1004440;-74
2023/08/25 02:00:29;;;;;;;13.70;11.70;;;;;;;-128.00;-1.00;-1.00;105202;1258;1003903;-74
2023/08/25 02:02:56;;;;;;;13.60;12.20;;;;;;;-128.00;-1.00;-1.00;105673;1249;1046798;-73
2023/08/25 02:05:22;;;;;;;13.00;11.60;;;;;;;-128.00;-1.00;-1.00;105685;1249;1004705;-74
2023/08/25 02:07:49;;;;;;;12.00;10.80;;;;;;;-128.00;-1.00;-1.00;105919;1250;1003289;-74
2023/08/25 02:10:16;;;;;;;13.40;11.70;;;;;;;-128.00;-1.00;-1.00;105906;1250;1003988;-74
2023/08/25 02:12:42;;;;;;;12.20;11.00;;;;;;;-128.00;-1.00;-1.00;105896;1250;1004387;-74
2023/08/25 02:15:09;;;;;;;12.50;11.20;;;;;;;-128.00;-1.00;-1.00;105957;1250;1004493;-73
2023/08/25 02:17:36;;;;;;;11.90;10.70;;;;;;;-128.00;-1.00;-1.00;105945;1249;1003942;-74
2023/08/25 02:20:04;;;;;;;12.80;11.50;;;;;;;-128.00;-1.00;-1.00;105961;1250;1004333;-73
2023/08/25 02:22:30;;;;;;;12.50;11.20;;;;;;;-128.00;-1.00;-1.00;105975;1250;1003596;-74
2023/08/25 02:24:57;;;;;;;11.70;10.60;;;;;;;-128.00;-1.00;-1.00;105605;1251;1004526;-74
2023/08/25 02:27:23;;;;;;;12.50;11.00;;;;;;;-128.00;-1.00;-1.00;105928;1249;1003864;-74
2023/08/25 02:29:50;;;;;;;12.30;11.10;;;;;;;-128.00;-1.00;-1.00;105785;1250;1004412;-74
2023/08/25 02:32:17;;;;;;;11.40;10.40;;;;;;;-128.00;-1.00;-1.00;105975;1250;1004152;-74
2023/08/25 02:34:43;;;;;;;11.90;10.70;;;;;;;-128.00;-1.00;-1.00;105965;1250;1003972;-73
2023/08/25 02:37:09;;;;;;;13.00;10.50;;;;;;;-128.00;-1.00;-1.00;105882;1249;1004465;-73
2023/08/25 02:39:36;;;;;;;12.20;10.90;;;;;;;-128.00;-1.00;-1.00;105917;1251;1003954;-74
2023/08/25 02:42:03;;;;;;;13.00;10.90;;;;;;;-128.00;-1.00;-1.00;105939;1250;1004201;-74
2023/08/25 02:44:30;;;;;;;13.80;11.00;;;;;;;-128.00;-1.00;-1.00;105928;1250;1005364;-73
2023/08/25 02:46:56;;;;;;;12.00;10.90;;;;;;;-128.00;-1.00;-1.00;105902;1249;1005066;-74
2023/08/25 02:49:23;;;;;;;11.30;10.20;;;;;;;-128.00;-1.00;-1.00;105908;1249;1003615;-73
2023/08/25 02:51:50;;;;;;;12.40;11.20;;;;;;;-128.00;-1.00;-1.00;105905;1251;1003744;-73
2023/08/25 02:54:16;;;;;;;13.20;11.80;;;;;;;-128.00;-1.00;-1.00;105642;1249;1005169;-74
2023/08/25 02:56:43;;;;;;;13.50;12.20;;;;;;;-128.00;-1.00;-1.00;105921;1250;1003967;-73
2023/08/25 02:59:09;;;;;;;11.90;10.70;;;;;;;-128.00;-1.00;-1.00;105927;1249;1003654;-73
2023/08/25 03:01:36;;;;;;;13.30;12.00;;;;;;;-128.00;-1.00;-1.00;105897;1250;1003882;-74
2023/08/25 03:04:02;;;;;;;15.70;12.90;;;;;;;-128.00;-1.00;-1.00;105643;1249;1003364;-74
2023/08/25 03:06:29;;;;;;;13.30;12.00;;;;;;;-128.00;-1.00;-1.00;105934;1250;1003804;-73
2023/08/25 03:08:56;;;;;;;13.10;11.70;;;;;;;-128.00;-1.00;-1.00;105893;1250;1004247;-73
2023/08/25 03:11:22;;;;;;;13.50;12.00;;;;;;;-128.00;-1.00;-1.00;105915;1250;1004201;-74
2023/08/25 03:13:49;;;;;;;15.50;13.30;;;;;;;-128.00;-1.00;-1.00;105904;1250;1005193;-74
2023/08/25 03:16:16;;;;;;;13.50;12.30;;;;;;;-128.00;-1.00;-1.00;105894;1250;1003991;-73
2023/08/25 03:18:42;;;;;;;12.80;11.50;;;;;;;-128.00;-1.00;-1.00;105923;1250;1006216;-74
2023/08/25 03:21:09;;;;;;;13.80;12.40;;;;;;;-128.00;-1.00;-1.00;105927;1250;1003630;-73
2023/08/25 03:23:35;;;;;;;14.30;12.70;;;;;;;-128.00;-1.00;-1.00;105950;1250;1004646;-74
2023/08/25 03:26:03;;;;;;;13.10;11.90;;;;;;;-128.00;-1.00;-1.00;105910;1250;1004765;-73
2023/08/25 03:28:29;;;;;;;16.40;13.80;;;;;;;-128.00;-1.00;-1.00;105888;1250;1004142;-73
2023/08/25 03:30:56;;;;;;;13.00;11.60;;;;;;;-128.00;-1.00;-1.00;105889;1249;1005046;-73
2023/08/25 03:33:22;;;;;;;14.10;12.70;;;;;;;-128.00;-1.00;-1.00;105962;1251;1003822;-72
2023/08/25 03:35:49;;;;;;;13.20;11.90;;;;;;;-128.00;-1.00;-1.00;105907;1250;1003943;-72
2023/08/25 03:38:15;;;;;;;15.50;12.90;;;;;;;-128.00;-1.00;-1.00;105909;1250;1004446;-73
2023/08/25 03:40:43;;;;;;;14.10;12.70;;;;;;;-128.00;-1.00;-1.00;105935;1250;1004137;-74
2023/08/25 03:43:09;;;;;;;14.10;12.60;;;;;;;-128.00;-1.00;-1.00;105674;1249;1003756;-74
2023/08/25 03:45:36;;;;;;;15.00;13.50;;;;;;;-128.00;-1.00;-1.00;105899;1250;1005652;-74
2023/08/25 03:48:03;;;;;;;14.80;13.30;;;;;;;-128.00;-1.00;-1.00;105926;1250;1004551;-74
2023/08/25 03:50:29;;;;;;;14.50;13.00;;;;;;;-128.00;-1.00;-1.00;105790;1249;1004359;-73
2023/08/25 03:52:56;;;;;;;16.10;14.50;;;;;;;-128.00;-1.00;-1.00;105908;1250;1005109;-74
2023/08/25 03:55:22;;;;;;;18.00;15.80;;;;;;;-128.00;-1.00;-1.00;105936;1249;1004123;-74
2023/08/25 03:57:49;;;;;;;17.50;15.60;;;;;;;-128.00;-1.00;-1.00;105930;1250;1004561;-74
2023/08/25 04:00:16;;;;;;;18.00;15.70;;;;;;;-128.00;-1.00;-1.00;105921;1250;1004934;-74
2023/08/25 04:02:42;;;;;;;18.60;16.60;;;;;;;-128.00;-1.00;-1.00;105635;1250;1003368;-73
2023/08/25 04:05:09;;;;;;;17.40;15.80;;;;;;;-128.00;-1.00;-1.00;105912;1250;1005012;-78
2023/08/25 04:07:35;;;;;;;16.20;14.60;;;;;;;-128.00;-1.00;-1.00;106006;1250;1004867;-79
2023/08/25 04:10:03;;;;;;;18.00;15.40;;;;;;;-128.00;-1.00;-1.00;105921;1250;1004423;-79
2023/08/25 04:12:29;;;;;;;16.90;15.10;;;;;;;-128.00;-1.00;-1.00;105806;1251;1004169;-78
2023/08/25 04:14:56;;;;;;;17.00;14.70;;;;;;;-128.00;-1.00;-1.00;105750;1251;1004286;-78
2023/08/25 04:17:23;;;;;;;16.60;14.70;;;;;;;-128.00;-1.00;-1.00;105798;1251;1004228;-78
2023/08/25 04:19:49;;;;;;;14.90;13.30;;;;;;;-128.00;-1.00;-1.00;105771;1253;1004327;-78
2023/08/25 04:22:16;;;;;;;14.00;12.60;;;;;;;-128.00;-1.00;-1.00;105808;1251;1004188;-79
2023/08/25 04:24:42;;;;;;;14.80;12.80;;;;;;;-128.00;-1.00;-1.00;105568;1250;1004120;-79
2023/08/25 04:27:09;;;;;;;13.50;11.80;;;;;;;-128.00;-1.00;-1.00;105800;1251;1004126;-77
2023/08/25 04:29:35;;;;;;;17.90;13.20;;;;;;;-128.00;-1.00;-1.00;105736;1251;1004143;-78
2023/08/25 04:32:02;;;;;;;17.10;11.80;;;;;;;-128.00;-1.00;-1.00;105823;1251;1006138;-78
2023/08/25 04:34:29;;;;;;;12.80;11.00;;;;;;;-128.00;-1.00;-1.00;105755;1251;1005005;-78
2023/08/25 04:36:55;;;;;;;11.80;10.50;;;;;;;-128.00;-1.00;-1.00;105791;1251;1004597;-78
2023/08/25 04:39:21;;;;;;;13.10;10.80;;;;;;;-128.00;-1.00;-1.00;105796;1251;1004666;-77
2023/08/25 04:41:48;;;;;;;12.30;10.70;;;;;;;-128.00;-1.00;-1.00;105582;1251;1004290;-78
2023/08/25 04:44:15;;;;;;;14.10;12.00;;;;;;;-128.00;-1.00;-1.00;105766;1251;1004411;-77
2023/08/25 04:46:41;;;;;;;12.40;11.20;;;;;;;-128.00;-1.00;-1.00;105817;1251;1004028;-78
2023/08/25 04:49:09;;;;;;;11.60;10.40;;;;;;;-128.00;-1.00;-1.00;105767;1251;1004034;-78
2023/08/25 04:51:36;;;;;;;10.70;9.70;;;;;;;-128.00;-1.00;-1.00;105826;1251;1003682;-77
2023/08/25 04:54:03;;;;;;;13.00;10.50;;;;;;;-128.00;-1.00;-1.00;105834;1251;1004202;-78
2023/08/25 04:56:29;;;;;;;11.70;10.50;;;;;;;-128.00;-1.00;-1.00;105839;1251;1004325;-77
2023/08/25 04:58:56;;;;;;;11.60;9.90;;;;;;;-128.00;-1.00;-1.00;105843;1251;1004115;-78
2023/08/25 05:01:22;;;;;;;11.30;9.90;;;;;;;-128.00;-1.00;-1.00;105810;1251;1003705;-77
2023/08/25 05:03:49;;;;;;;10.80;9.70;;;;;;;-128.00;-1.00;-1.00;105789;1251;1003537;-77
2023/08/25 05:06:16;;;;;;;11.40;10.20;;;;;;;-128.00;-1.00;-1.00;105866;1251;1003398;-77
2023/08/25 05:08:42;;;;;;;9.80;8.80;;;;;;;-128.00;-1.00;-1.00;105839;1251;1004373;-77
2023/08/25 05:11:09;;;;;;;10.60;8.90;;;;;;;-128.00;-1.00;-1.00;105793;1251;1003578;-77
2023/08/25 05:13:36;;;;;;;10.40;8.60;;;;;;;-128.00;-1.00;-1.00;105810;1251;1004448;-78
2023/08/25 05:16:03;;;;;;;10.00;8.90;;;;;;;-128.00;-1.00;-1.00;105755;1251;1004881;-77
2023/08/25 05:18:31;;;;;;;11.80;8.70;;;;;;;-128.00;-1.00;-1.00;105740;1251;1004667;-76
2023/08/25 05:20:59;;;;;;;9.30;8.30;;;;;;;-128.00;-1.00;-1.00;105850;1251;1003184;-76
2023/08/25 05:23:27;;;;;;;8.90;8.00;;;;;;;-128.00;-1.00;-1.00;105812;1251;1004658;-77
2023/08/25 05:25:55;;;;;;;9.50;8.50;;;;;;;-128.00;-1.00;-1.00;105805;1251;1004493;-77
2023/08/25 05:28:21;;;;;;;8.90;8.00;;;;;;;-128.00;-1.00;-1.00;105789;1251;1060223;-77
2023/08/25 05:30:48;;;;;;;10.00;9.00;;;;;;;-128.00;-1.00;-1.00;105602;1251;1003233;-77
2023/08/25 05:33:15;;;;;;;10.60;8.90;;;;;;;-128.00;-1.00;-1.00;105809;1251;1004185;-77
2023/08/25 05:35:41;;;;;;;10.20;8.50;;;;;;;-128.00;-1.00;-1.00;105766;1251;1004570;-78
2023/08/25 05:38:08;;;;;;;12.30;9.00;;;;;;;-128.00;-1.00;-1.00;105773;1250;1003709;-78
2023/08/25 05:40:35;;;;;;;12.00;9.50;;;;;;;-128.00;-1.00;-1.00;105789;1251;1004192;-77
2023/08/25 05:43:01;;;;;;;11.60;9.00;;;;;;;-128.00;-1.00;-1.00;105802;1251;1004568;-78
2023/08/25 05:45:28;;;;;;;10.90;9.00;;;;;;;-128.00;-1.00;-1.00;105782;1251;1005585;-77
2023/08/25 05:47:54;;;;;;;10.80;8.80;;;;;;;-128.00;-1.00;-1.00;105866;1251;1003645;-78
2023/08/25 05:50:21;;;;;;;12.10;8.50;;;;;;;-128.00;-1.00;-1.00;105840;1251;1005730;-77
2023/08/25 05:52:47;;;;;;;10.30;8.90;;;;;;;-128.00;-1.00;-1.00;105578;1251;1004138;-77
2023/08/25 05:55:15;;;;;;;11.90;10.00;;;;;;;-128.00;-1.00;-1.00;105817;1251;1003465;-77
2023/08/25 05:57:41;;;;;;;10.80;9.80;;;;;;;-128.00;-1.00;-1.00;105829;1251;1004076;-78
2023/08/25 06:00:08;;;;;;;11.30;9.60;;;;;;;-128.00;-1.00;-1.00;105803;1251;1004489;-77
2023/08/25 06:02:35;;;;;;;11.00;9.90;;;;;;;-128.00;-1.00;-1.00;105655;1251;1004209;-78
2023/08/25 06:05:03;;;;;;;10.00;9.10;;;;;;;-128.00;-1.00;-1.00;105798;1251;1004534;-78
2023/08/25 06:07:29;;;;;;;12.10;9.90;;;;;;;-128.00;-1.00;-1.00;105786;1251;1003954;-78
2023/08/25 06:09:56;;;;;;;11.00;9.80;;;;;;;-128.00;-1.00;-1.00;105868;1251;1003649;-77
2023/08/25 06:12:22;;;;;;;10.50;9.30;;;;;;;-128.00;-1.00;-1.00;105815;1251;1004787;-77
2023/08/25 06:14:51;;;;;;;11.80;8.80;;;;;;;-128.00;-1.00;-1.00;105816;1250;1003987;-78
2023/08/25 06:17:17;;;;;;;10.10;9.10;;;;;;;-128.00;-1.00;-1.00;105816;1251;1004063;-77
2023/08/25 06:19:44;;;;;;;10.40;9.30;;;;;;;-128.00;-1.00;-1.00;105811;1251;1005079;-76
2023/08/25 06:22:11;;;;;;;9.70;8.70;;;;;;;-128.00;-1.00;-1.00;105635;1251;1003301;-77
2023/08/25 06:24:37;;;;;;;10.30;8.90;;;;;;;-128.00;-1.00;-1.00;105802;1251;1003199;-76
2023/08/25 06:27:04;;;;;;;9.90;8.90;;;;;;;-128.00;-1.00;-1.00;105813;1251;1004110;-78
2023/08/25 06:29:30;;;;;;;10.10;9.10;;;;;;;-128.00;-1.00;-1.00;105621;1251;1004374;-77
2023/08/25 06:31:57;;;;;;;9.90;8.50;;;;;;;-128.00;-1.00;-1.00;105821;1251;1005346;-76
2023/08/25 06:34:23;;;;;;;10.40;8.90;;;;;;;-128.00;-1.00;-1.00;105855;1251;1004381;-78
2023/08/25 06:36:50;;;;;;;10.70;9.00;;;;;;;-128.00;-1.00;-1.00;105811;1251;1003765;-77
2023/08/25 06:39:17;;;;;;;10.80;9.70;;;;;;;-128.00;-1.00;-1.00;105766;1251;1004801;-76
2023/08/25 06:41:43;;;;;;;12.10;8.50;;;;;;;-128.00;-1.00;-1.00;105597;1251;1005320;-76
2023/08/25 06:44:10;;;;;;;12.60;9.50;;;;;;;-128.00;-1.00;-1.00;105838;1251;1004166;-76
2023/08/25 06:46:37;;;;;;;10.90;9.00;;;;;;;-128.00;-1.00;-1.00;105876;1250;1004262;-77
2023/08/25 06:49:03;;;;;;;9.50;8.50;;;;;;;-128.00;-1.00;-1.00;105770;1251;1003986;-76
2023/08/25 06:51:30;;;;;;;10.20;9.20;;;;;;;-128.00;-1.00;-1.00;105805;1251;1004404;-77
2023/08/25 06:53:57;;;;;;;11.00;8.70;;;;;;;-128.00;-1.00;-1.00;105755;1251;1004524;-75
2023/08/25 06:56:24;;;;;;;10.10;9.10;;;;;;;-128.00;-1.00;-1.00;105768;1251;1004503;-77
2023/08/25 06:58:50;;;;;;;10.50;9.10;;;;;;;-128.00;-1.00;-1.00;105833;1251;1004158;-76
2023/08/25 07:01:18;;;;;;;11.50;9.50;;;;;;;-128.00;-1.00;-1.00;105785;1251;1004534;-75
2023/08/25 07:03:44;;;;;;;10.00;9.10;;;;;;;-128.00;-1.00;-1.00;105784;1251;1005276;-76
2023/08/25 07:06:11;;;;;;;10.10;8.80;;;;;;;-128.00;-1.00;-1.00;105814;1251;1004172;-75
2023/08/25 07:08:37;;;;;;;10.80;9.30;;;;;;;-128.00;-1.00;-1.00;105756;1251;1004317;-76
2023/08/25 07:11:04;;;;;;;10.50;8.50;;;;;;;-128.00;-1.00;-1.00;105857;1251;1003855;-75
2023/08/25 07:13:34;;;;;;;15.90;9.00;;;;;;;-128.00;-1.00;-1.00;105749;1251;1004993;-76
2023/08/25 07:16:00;;;;;;;9.90;8.70;;;;;;;-128.00;-1.00;-1.00;105838;1251;1056062;-76
2023/08/25 07:18:27;;;;;;;9.90;8.00;;;;;;;-128.00;-1.00;-1.00;105814;1251;1003959;-70
2023/08/25 07:20:53;;;;;;;8.70;7.90;;;;;;;-128.00;-1.00;-1.00;105559;1251;1004497;-76
2023/08/25 07:23:20;;;;;;;11.10;8.60;;;;;;;-128.00;-1.00;-1.00;105816;1251;1003697;-72
2023/08/25 07:25:51;;;;;;;10.50;8.60;;;;;;;-128.00;-1.00;-1.00;105796;1251;1005082;-72
2023/08/25 07:28:18;;;;;;;9.70;8.40;;;;;;;-128.00;-1.00;-1.00;105830;1250;1055926;-73
2023/08/25 07:30:44;;;;;;;9.90;8.40;;;;;;;-128.00;-1.00;-1.00;105752;1251;1005155;-72
2023/08/25 07:33:11;;;;;;;9.10;8.20;;;;;;;-128.00;-1.00;-1.00;105778;1251;1003996;-73
2023/08/25 07:35:38;;;;;;;9.50;8.60;;;;;;;-128.00;-1.00;-1.00;105848;1251;1004891;-72
2023/08/25 07:38:05;;;;;;;9.90;8.80;;;;;;;-128.00;-1.00;-1.00;105780;1251;1004281;-72
2023/08/25 07:40:32;;;;;;;10.10;9.10;;;;;;;-128.00;-1.00;-1.00;105806;1250;1004025;-73
2023/08/25 07:43:03;;;;;;;11.50;9.40;;;;;;;-128.00;-1.00;-1.00;105776;1251;1003526;-72
2023/08/25 07:45:30;;;;;;;10.10;8.10;;;;;;;-128.00;-1.00;-1.00;105551;1251;1047503;-72
2023/08/25 07:48:01;;;;;;;10.10;9.10;;;;;;;-128.00;-1.00;-1.00;105798;1251;1005051;-72
2023/08/25 07:50:29;;;;;;;9.50;8.30;;;;;;;-128.00;-1.00;-1.00;105525;1251;1062357;-72
2023/08/25 07:52:56;;;;;;;11.10;9.00;;;;;;;-128.00;-1.00;-1.00;105944;1249;1003666;-74
2023/08/25 07:55:23;;;;;;;13.20;9.60;;;;;;;-128.00;-1.00;-1.00;105887;1251;1004559;-72
2023/08/25 07:57:51;;;;;;;10.50;9.50;;;;;;;-128.00;-1.00;-1.00;105869;1250;1003556;-73
2023/08/25 08:00:18;;;;;;;13.00;9.00;;;;;;;-128.00;-1.00;-1.00;105848;1249;1004880;-71
2023/08/25 08:02:46;;;;;;;12.80;9.40;;;;;;;-128.00;-1.00;-1.00;105691;1250;1004313;-71
2023/08/25 08:05:15;;;;;;;11.40;9.80;;;;;;;-128.00;-1.00;-1.00;105953;1250;1004952;-71
2023/08/25 08:07:42;;;;;;;10.10;9.10;;;;;;;-128.00;-1.00;-1.00;105928;1250;1058619;-70
2023/08/25 08:10:10;;;;;;;10.40;8.30;;;;;;;-128.00;-1.00;-1.00;105905;1249;1003663;-70
2023/08/25 08:12:38;;;;;;;10.00;8.90;;;;;;;-128.00;-1.00;-1.00;105947;1249;1004005;-70
2023/08/25 08:15:06;;;;;;;10.20;9.20;;;;;;;-128.00;-1.00;-1.00;105729;1250;1003576;-70
2023/08/25 08:17:33;;;;;;;11.90;9.90;;;;;;;-128.00;-1.00;-1.00;105596;1250;1004063;-70
2023/08/25 08:20:00;;;;;;;13.10;8.90;;;;;;;-128.00;-1.00;-1.00;105908;1250;1003625;-71
2023/08/25 08:22:27;;;;;;;12.60;9.40;;;;;;;-128.00;-1.00;-1.00;105893;1250;1004031;-74
2023/08/25 08:24:53;;;;;;;13.40;8.40;;;;;;;-128.00;-1.00;-1.00;105948;1250;1004727;-73
2023/08/25 08:27:20;;;;;;;8.70;7.90;;;;;;;-128.00;-1.00;-1.00;105945;1250;1003516;-73
2023/08/25 08:29:48;;;;;;;12.20;8.60;;;;;;;-128.00;-1.00;-1.00;105904;1251;1004922;-74
2023/08/25 08:32:15;;;;;;;8.70;7.90;;;;;;;-128.00;-1.00;-1.00;105920;1249;1005243;-74
2023/08/25 08:34:42;;;;;;;9.30;8.50;;;;;;;-128.00;-1.00;-1.00;105909;1250;1004820;-74
2023/08/25 08:37:08;;;;;;;9.20;7.70;;;;;;;-128.00;-1.00;-1.00;105793;1249;1005325;-74
2023/08/25 08:39:38;;;;;;;12.10;7.60;;;;;;;-128.00;-1.00;-1.00;105927;1250;1005476;-74
2023/08/25 08:42:07;;;;;;;8.40;7.60;;;;;;;-128.00;-1.00;-1.00;105965;1250;1056235;-75
2023/08/25 08:44:36;;;;;;;8.00;7.10;;;;;;;-128.00;-1.00;-1.00;105740;1250;1059484;-72
2023/08/25 08:47:06;;;;;;;9.20;7.50;;;;;;;-128.00;-1.00;-1.00;105885;1249;1046599;-74
2023/08/25 08:49:33;;;;;;;8.10;7.10;;;;;;;-128.00;-1.00;-1.00;105953;1249;1046707;-74
2023/08/25 08:52:01;;;;;;;9.50;8.00;;;;;;;-128.00;-1.00;-1.00;105927;1250;1004556;-74
2023/08/25 08:54:28;;;;;;;12.00;8.70;;;;;;;-128.00;-1.00;-1.00;105940;1249;1004744;-74
2023/08/25 08:56:55;;;;;;;7.70;6.90;;;;;;;-128.00;-1.00;-1.00;105895;1250;1003424;-73
2023/08/25 08:59:22;;;;;;;8.10;7.30;;;;;;;-128.00;-1.00;-1.00;105934;1250;1005055;-74
2023/08/25 09:01:49;;;;;;;8.30;7.60;;;;;;;-128.00;-1.00;-1.00;105766;1250;1004896;-74
2023/08/25 09:04:22;;;;;;;10.80;8.40;;;;;;;-128.00;-1.00;-1.00;105924;1250;1004508;-73
2023/08/25 09:06:51;;;;;;;8.00;7.20;;;;;;;-128.00;-1.00;-1.00;105924;1250;1055841;-73
2023/08/25 09:09:19;;;;;;;8.10;7.30;;;;;;;-128.00;-1.00;-1.00;105911;1250;1059868;-73
2023/08/25 09:11:47;;;;;;;10.70;7.40;;;;;;;-128.00;-1.00;-1.00;105873;1249;1004391;-75
2023/08/25 09:14:24;;;;;;;8.40;7.40;;;;;;;-128.00;-1.00;-1.00;105922;1249;1003962;-73
2023/08/25 09:16:56;;;;;;;9.10;7.50;;;;;;;-128.00;-1.00;-1.00;105944;1249;1062402;-75
2023/08/25 09:19:23;;;;;;;12.00;8.10;;;;;;;-128.00;-1.00;-1.00;105931;1249;1054891;-74
2023/08/25 09:21:49;;;;;;;8.00;7.00;;;;;;;-128.00;-1.00;-1.00;105925;1250;1003913;-74
2023/08/25 09:24:24;;;;;;;10.40;8.10;;;;;;;-128.00;-1.00;-1.00;105938;1250;1004135;-73
2023/08/25 09:26:51;;;;;;;7.60;6.90;;;;;;;-128.00;-1.00;-1.00;105910;1249;1048213;-74
2023/08/25 09:29:17;;;;;;;8.60;7.80;;;;;;;-128.00;-1.00;-1.00;105901;1250;1004113;-75
2023/08/25 09:31:44;;;;;;;8.30;7.50;;;;;;;-128.00;-1.00;-1.00;105938;1249;1004896;-74
2023/08/25 09:34:13;;;;;;;9.10;8.20;;;;;;;-128.00;-1.00;-1.00;105916;1250;1005006;-74
2023/08/25 09:36:53;;;;;;;15.70;9.50;;;;;;;-128.00;-1.00;-1.00;105964;1250;1044928;-73
2023/08/25 09:39:21;;;;;;;8.70;7.80;;;;;;;-128.00;-1.00;-1.00;105946;1249;1046435;-76
2023/08/25 09:41:48;;;;;;;13.60;8.10;;;;;;;-128.00;-1.00;-1.00;105741;1250;1005295;-72
2023/08/25 09:44:16;;;;;;;10.10;8.10;;;;;;;-128.00;-1.00;-1.00;105915;1249;1003981;-73
2023/08/25 09:46:44;;;;;;;8.70;7.80;;;;;;;-128.00;-1.00;-1.00;105882;1250;1003811;-74
2023/08/25 09:49:13;;;;;;;33.60;12.80;;;;;;;-128.00;-1.00;-1.00;105960;1249;1004330;-73
2023/08/25 09:51:42;;;;;;;46.00;13.80;;;;;;;-128.00;-1.00;-1.00;105927;1250;1046306;-73
2023/08/25 09:54:15;;;;;;;51.20;15.10;;;;;;;-128.00;-1.00;-1.00;105923;1250;1062033;-74
2023/08/25 09:56:47;;;;;;;130.10;19.60;;;;;;;-128.00;-1.00;-1.00;105949;1250;1054549;-74
2023/08/25 09:59:14;;;;;;;59.10;17.50;;;;;;;-128.00;-1.00;-1.00;105915;1250;1060971;-74
2023/08/25 10:01:45;;;;;;;22.80;12.20;;;;;;;-128.00;-1.00;-1.00;105919;1250;1004778;-74
2023/08/25 10:04:16;;;;;;;26.40;13.50;;;;;;;-128.00;-1.00;-1.00;105938;1250;1047177;-74
2023/08/25 10:06:43;;;;;;;37.30;11.40;;;;;;;-128.00;-1.00;-1.00;105934;1249;1064824;-74
2023/08/25 10:09:10;;;;;;;9.30;8.40;;;;;;;-128.00;-1.00;-1.00;105936;1250;1004710;-74
2023/08/25 10:11:41;;;;;;;9.40;8.40;;;;;;;-128.00;-1.00;-1.00;105941;1249;1004509;-74
2023/08/25 10:14:12;;;;;;;14.70;8.60;;;;;;;-128.00;-1.00;-1.00;105898;1250;1045171;-74
2023/08/25 10:16:52;;;;;;;19.70;9.90;;;;;;;-128.00;-1.00;-1.00;105911;1250;1046493;-73
2023/08/25 10:19:20;;;;;;;8.60;7.90;;;;;;;-128.00;-1.00;-1.00;105931;1250;1061814;-74
2023/08/25 10:21:51;;;;;;;14.60;10.10;;;;;;;-128.00;-1.00;-1.00;105943;1251;1004998;-75
2023/08/25 10:24:22;;;;;;;10.20;8.60;;;;;;;-128.00;-1.00;-1.00;105757;1250;1058602;-73
2023/08/25 10:26:50;;;;;;;14.40;8.50;;;;;;;-128.00;-1.00;-1.00;105927;1250;1045761;-74
2023/08/25 10:29:19;;;;;;;9.90;7.80;;;;;;;-128.00;-1.00;-1.00;105965;1251;1046452;-74
2023/08/25 10:32:04;;;;;;;8.20;7.50;;;;;;;-128.00;-1.00;-1.00;105794;1250;1063513;-74
2023/08/25 10:34:32;;;;;;;8.10;7.40;;;;;;;-128.00;-1.00;-1.00;105900;1253;1056244;-74
2023/08/25 10:37:06;;;;;;;10.10;8.50;;;;;;;-128.00;-1.00;-1.00;105891;1250;1004243;-73
2023/08/25 10:40:11;;;;;;;8.10;7.40;;;;;;;-128.00;-1.00;-1.00;105847;1250;1046407;-73
2023/08/25 10:42:38;;;;;;;11.20;8.20;;;;;;;-128.00;-1.00;-1.00;105330;1257;1047294;-73
2023/08/25 10:45:09;;;;;;;8.70;7.90;;;;;;;-128.00;-1.00;-1.00;105209;1257;1004374;-73
2023/08/25 10:47:45;;;;;;;9.40;8.30;;;;;;;-128.00;-1.00;-1.00;105314;1257;1056808;-73
2023/08/25 10:50:13;;;;;;;12.60;8.60;;;;;;;-128.00;-1.00;-1.00;105299;1257;1059732;-72
2023/08/25 10:52:47;;;;;;;9.20;8.30;;;;;;;-128.00;-1.00;-1.00;105199;1257;1004145;-73
2023/08/25 10:55:32;;;;;;;8.90;8.10;;;;;;;-128.00;-1.00;-1.00;105197;1257;1046145;-73
2023/08/25 10:58:06;;;;;;;9.20;7.90;;;;;;;-128.00;-1.00;-1.00;105315;1256;1061631;-74
2023/08/25 11:00:36;;;;;;;9.20;8.40;;;;;;;-128.00;-1.00;-1.00;105305;1257;1054740;-74
2023/08/25 11:03:03;;;;;;;8.80;8.00;;;;;;;-128.00;-1.00;-1.00;105298;1257;1058822;-74
2023/08/25 11:05:37;;;;;;;9.30;8.40;;;;;;;-128.00;-1.00;-1.00;105309;1257;1004113;-74
2023/08/25 11:08:05;;;;;;;10.40;8.90;;;;;;;-128.00;-1.00;-1.00;105312;1257;1046727;-74
2023/08/25 11:10:34;;;;;;;10.40;9.30;;;;;;;-128.00;-1.00;-1.00;105310;1257;1003972;-74